createdAt,value
2019-03-29T00:03:35.067Z,102103.97
2019-03-29T00:08:39.567Z,102112.95
2019-03-29T00:13:43.970Z,102111.67
2019-03-29T00:18:48.329Z,102115.50
2019-03-29T00:24:05.924Z,102112.30
2019-03-29T00:28:59.126Z,102120.47
2019-03-29T00:34:03.501Z,102118.70
2019-03-29T00:39:08.062Z,102115.22
2019-03-29T00:44:12.429Z,102111.06
2019-03-29T00:49:16.833Z,102107.01
2019-03-29T00:54:21.195Z,102101.59
2019-03-29T00:59:25.577Z,102095.65
2019-03-29T01:04:29.968Z,102096.06
2019-03-29T01:09:34.337Z,102098.97
2019-03-29T01:14:38.690Z,102084.45
2019-03-29T01:19:43.056Z,102070.31
2019-03-29T01:24:47.448Z,102074.39
2019-03-29T01:29:51.887Z,102078.96
2019-03-29T01:34:56.314Z,102082.64
2019-03-29T01:40:00.710Z,102082.38
2019-03-29T01:45:07.420Z,102078.89
2019-03-29T01:50:11.876Z,102080.88
2019-03-29T01:55:16.330Z,102078.45
2019-03-29T02:00:32.448Z,102062.42
2019-03-29T02:05:36.863Z,102065.31
2019-03-29T02:10:41.241Z,102061.67
2019-03-29T02:15:45.600Z,102071.53
2019-03-29T02:20:50.151Z,102072.88
2019-03-29T02:25:54.835Z,102069.05
2019-03-29T02:30:59.780Z,102067.75
2019-03-29T02:36:05.662Z,102055.31
2019-03-29T02:41:10.595Z,102049.39
2019-03-29T02:46:14.968Z,102054.07
2019-03-29T02:51:19.390Z,102048.08
2019-03-29T02:56:23.754Z,102048.42
2019-03-29T03:01:28.109Z,102044.80
2019-03-29T03:06:32.580Z,102046.63
2019-03-29T03:11:36.981Z,102045.39
2019-03-29T03:16:41.367Z,102045.24
2019-03-29T03:21:45.828Z,102044.63
2019-03-29T03:26:50.251Z,102045.66
2019-03-29T03:31:54.603Z,102055.66
2019-03-29T03:37:00.193Z,102051.47
2019-03-29T03:42:04.556Z,102054.94
2019-03-29T03:47:08.970Z,102050.18
2019-03-29T03:52:13.341Z,102046.91
2019-03-29T03:57:18.025Z,102043.31
2019-03-29T04:02:22.410Z,102041.33
2019-03-29T04:07:26.798Z,102047.03
2019-03-29T04:12:31.204Z,102053.93
2019-03-29T04:17:35.563Z,102048.28
2019-03-29T04:22:39.945Z,102051.38
2019-03-29T04:27:44.419Z,102050.91
2019-03-29T04:32:48.798Z,102045.66
2019-03-29T04:37:53.218Z,102041.33
2019-03-29T04:42:57.577Z,102043.20
2019-03-29T04:48:02.014Z,102046.55
2019-03-29T04:53:06.329Z,102045.31
2019-03-29T04:58:10.861Z,102047.27
2019-03-29T05:03:15.282Z,102051.00
2019-03-29T05:08:19.683Z,102051.00
2019-03-29T05:13:24.056Z,102059.16
2019-03-29T05:18:28.477Z,102059.11
2019-03-29T05:23:32.829Z,102061.80
2019-03-29T05:28:37.297Z,102063.42
2019-03-29T05:33:41.654Z,102057.19
2019-03-29T05:38:46.038Z,102065.08
2019-03-29T05:43:50.389Z,102056.87
2019-03-29T05:48:54.849Z,102059.80
2019-03-29T05:53:59.242Z,102071.93
2019-03-29T05:59:03.697Z,102065.60
2019-03-29T06:04:08.100Z,102067.48
2019-03-29T06:09:12.439Z,102070.53
2019-03-29T06:14:16.868Z,102064.45
2019-03-29T06:19:21.193Z,102076.55
2019-03-29T06:24:26.518Z,102071.17
2019-03-29T06:29:30.939Z,102075.84
2019-03-29T06:34:35.273Z,102064.59
2019-03-29T06:39:39.824Z,102058.00
2019-03-29T06:44:44.547Z,102055.52
2019-03-29T06:49:49.031Z,102056.39
2019-03-29T06:54:54.672Z,102062.31
2019-03-29T06:59:59.025Z,102056.83
2019-03-29T07:05:03.379Z,102061.76
2019-03-29T07:10:07.732Z,102063.09
2019-03-29T07:15:12.186Z,102058.98
2019-03-29T07:20:17.648Z,102063.48
2019-03-29T07:25:22.188Z,102064.62
2019-03-29T07:30:26.540Z,102065.48
2019-03-29T07:35:31.072Z,102063.67
2019-03-29T07:40:37.348Z,102069.98
2019-03-29T07:45:41.873Z,102069.11
2019-03-29T07:50:46.273Z,102068.02
2019-03-29T07:55:50.711Z,102065.96
2019-03-29T08:00:58.401Z,102064.59
2019-03-29T08:06:02.555Z,102056.50
2019-03-29T08:11:06.883Z,102056.12
2019-03-29T08:16:11.303Z,102053.75
2019-03-29T08:21:15.658Z,102055.59
2019-03-29T08:26:20.011Z,102056.00
2019-03-29T08:31:24.401Z,102057.14
2019-03-29T08:36:28.796Z,102054.76
2019-03-29T08:41:33.146Z,102050.92
2019-03-29T08:46:37.541Z,102047.84
2019-03-29T08:51:42.111Z,102044.31
2019-03-29T08:56:46.476Z,102048.48
2019-03-29T09:01:50.848Z,102045.72
2019-03-29T09:06:55.286Z,102046.23
2019-03-29T09:12:13.410Z,102042.03
2019-03-29T09:17:06.016Z,102049.90
2019-03-29T09:22:10.403Z,102053.86
2019-03-29T09:27:15.475Z,102049.47
2019-03-29T09:32:19.964Z,102040.34
2019-03-29T09:37:24.386Z,102045.53
2019-03-29T09:42:30.192Z,102044.70
2019-03-29T09:47:40.179Z,102043.39
2019-03-29T09:52:41.185Z,102032.48
2019-03-29T09:57:45.537Z,102032.48
2019-03-29T10:02:49.939Z,102031.52
2019-03-29T10:07:54.305Z,102025.89
2019-03-29T10:12:58.710Z,102036.78
2019-03-29T10:18:03.087Z,102027.20
2019-03-29T10:23:07.440Z,102021.06
2019-03-29T10:28:11.852Z,102022.84
2019-03-29T10:33:16.197Z,102021.97
2019-03-29T10:38:20.582Z,102018.05
2019-03-29T10:43:24.995Z,102009.72
2019-03-29T10:48:29.353Z,102004.93
2019-03-29T10:53:33.695Z,101995.28
2019-03-29T10:58:38.095Z,101992.25
2019-03-29T11:03:42.469Z,101988.33
2019-03-29T11:08:46.944Z,101975.59
2019-03-29T11:13:56.411Z,101979.57
2019-03-29T11:18:58.965Z,101972.02
2019-03-29T11:24:03.390Z,101971.69
2019-03-29T11:29:07.760Z,101955.03
2019-03-29T11:34:12.127Z,101949.70
2019-03-29T11:39:16.637Z,101941.00
2019-03-29T11:44:20.998Z,101934.45
2019-03-29T11:49:25.349Z,101928.77
2019-03-29T11:54:29.734Z,101925.67
2019-03-29T11:59:35.180Z,101910.34
2019-03-29T12:04:39.567Z,101901.50
2019-03-29T12:09:44.101Z,101896.16
2019-03-29T12:14:48.477Z,101879.89
2019-03-29T12:19:52.955Z,101878.83
2019-03-29T12:24:57.277Z,101870.58
2019-03-29T12:30:01.669Z,101865.52
2019-03-29T12:35:09.867Z,101849.30
2019-03-29T12:40:13.477Z,101840.63
2019-03-29T12:45:17.888Z,101833.52
2019-03-29T12:50:22.265Z,101837.87
2019-03-29T12:55:26.650Z,101818.91
2019-03-29T13:00:31.264Z,101814.46
2019-03-29T13:05:35.614Z,101805.19
2019-03-29T13:10:42.489Z,101799.53
2019-03-29T13:15:46.093Z,101795.61
2019-03-29T13:20:50.448Z,101787.84
2019-03-29T13:25:54.845Z,101778.10
2019-03-29T13:30:59.201Z,101777.20
2019-03-29T13:36:03.577Z,101762.74
2019-03-29T13:41:07.989Z,101750.88
2019-03-29T13:46:12.335Z,101739.11
2019-03-29T13:51:17.781Z,101729.37
2019-03-29T13:56:22.115Z,101718.53
2019-03-29T14:01:26.493Z,101716.36
2019-03-29T14:06:30.864Z,101716.14
2019-03-29T14:11:35.250Z,101699.68
2019-03-29T14:16:39.712Z,101694.27
2019-03-29T14:21:44.036Z,101690.97
2019-03-29T14:26:48.422Z,101691.55
2019-03-29T14:31:54.317Z,101684.61
2019-03-29T14:36:59.440Z,101669.67
2019-03-29T14:42:03.849Z,101662.70
2019-03-29T14:47:08.195Z,101659.62
2019-03-29T14:52:12.539Z,101657.63
2019-03-29T14:57:16.932Z,101649.04
2019-03-29T15:02:22.315Z,101647.23
2019-03-29T15:07:27.424Z,101632.78
2019-03-29T15:12:33.012Z,101626.65
2019-03-29T15:17:37.392Z,101616.07
2019-03-29T15:22:41.862Z,101619.64
2019-03-29T15:27:46.232Z,101616.61
2019-03-29T15:32:50.594Z,101610.91
2019-03-29T15:37:54.911Z,101603.91
2019-03-29T15:42:59.314Z,101591.92
2019-03-29T15:48:03.675Z,101588.59
2019-03-29T15:53:08.078Z,101594.22
2019-03-29T15:58:12.492Z,101585.91
2019-03-29T16:03:16.878Z,101587.58
2019-03-29T16:08:21.216Z,101585.27
2019-03-29T16:13:25.565Z,101582.19
2019-03-29T16:18:29.983Z,101576.66
2019-03-29T16:23:34.347Z,101568.17
2019-03-29T16:28:38.797Z,101567.36
2019-03-29T16:33:43.237Z,101558.69
2019-03-29T16:38:47.968Z,101553.53
2019-03-29T16:43:52.319Z,101544.41
2019-03-29T16:48:56.784Z,101544.78
2019-03-29T16:54:01.193Z,101531.86
2019-03-29T16:59:05.779Z,101530.06
2019-03-29T17:04:10.298Z,101518.69
2019-03-29T17:09:15.738Z,101523.58
2019-03-29T17:14:20.106Z,101521.37
2019-03-29T17:19:24.495Z,101519.38
2019-03-29T17:24:28.907Z,101514.23
2019-03-29T17:29:33.704Z,101514.80
2019-03-29T17:34:38.321Z,101508.72
2019-03-29T17:39:42.679Z,101517.53
2019-03-29T17:44:48.045Z,101521.52
2019-03-29T17:49:52.369Z,101526.33
2019-03-29T17:54:56.860Z,101524.26
2019-03-29T18:00:02.062Z,101523.02
2019-03-29T18:05:07.818Z,101523.20
2019-03-29T18:10:12.370Z,101531.45
2019-03-29T18:15:17.109Z,101529.02
2019-03-29T18:20:23.946Z,101523.42
2019-03-29T18:25:33.386Z,101525.16
2019-03-29T18:30:41.836Z,101530.52
2019-03-29T18:35:51.031Z,101527.50
2019-03-29T18:40:55.440Z,101521.80
2019-03-29T18:46:04.783Z,101519.67
2019-03-29T18:51:10.811Z,101516.22
2019-03-29T18:56:15.173Z,101513.20
2019-03-29T19:01:19.562Z,101514.07
2019-03-29T19:06:23.948Z,101513.22
2019-03-29T19:11:28.308Z,101511.16
2019-03-29T19:16:32.721Z,101510.70
2019-03-29T19:21:37.106Z,101508.10
2019-03-29T19:26:41.519Z,101505.06
2019-03-29T19:31:46.225Z,101506.41
2019-03-29T19:36:50.899Z,101505.97
2019-03-29T19:41:56.273Z,101508.16
2019-03-29T19:47:12.703Z,101503.78
2019-03-29T19:52:06.942Z,101506.34
2019-03-29T19:57:11.306Z,101512.85
2019-03-29T20:02:15.646Z,101511.11
2019-03-29T20:07:20.449Z,101513.30
2019-03-29T20:12:25.288Z,101519.78
2019-03-29T20:17:30.730Z,101523.22
2019-03-29T20:22:35.091Z,101524.52
2019-03-29T20:27:39.447Z,101512.84
2019-03-29T20:32:44.094Z,101512.31
2019-03-29T20:37:48.449Z,101507.49
2019-03-29T20:42:52.817Z,101495.71
2019-03-29T20:47:57.248Z,101499.20
2019-03-29T20:53:01.726Z,101498.76
2019-03-29T20:58:06.088Z,101496.56
2019-03-29T21:03:10.518Z,101493.28
2019-03-29T21:08:14.948Z,101493.64
2019-03-29T21:13:19.291Z,101486.14
2019-03-29T21:18:23.649Z,101489.27
2019-03-29T21:23:28.014Z,101486.19
2019-03-29T21:28:35.056Z,101480.97
2019-03-29T21:33:40.671Z,101480.45
2019-03-29T21:38:44.596Z,101481.44
2019-03-29T21:43:49.724Z,101476.55
2019-03-29T21:48:54.134Z,101469.70
2019-03-29T21:53:58.494Z,101469.75
2019-03-29T21:59:02.849Z,101465.09
2019-03-29T22:04:07.293Z,101469.75
2019-03-29T22:09:11.709Z,101461.84
2019-03-29T22:14:16.109Z,101454.41
2019-03-29T22:19:20.505Z,101455.18
2019-03-29T22:24:24.984Z,101444.98
2019-03-29T22:29:29.335Z,101448.84
2019-03-29T22:34:33.713Z,101451.45
2019-03-29T22:39:38.094Z,101441.41
2019-03-29T22:44:42.643Z,101444.39
2019-03-29T22:49:46.990Z,101440.55
2019-03-29T22:54:51.364Z,101439.61
2019-03-29T22:59:55.722Z,101431.75
2019-03-29T23:05:00.101Z,101435.97
2019-03-29T23:10:06.338Z,101441.34
2019-03-29T23:15:10.798Z,101437.20
2019-03-29T23:20:15.238Z,101439.37
2019-03-29T23:25:19.579Z,101435.73
2019-03-29T23:30:24.090Z,101436.58
2019-03-29T23:35:28.491Z,101435.70
2019-03-29T23:40:32.871Z,101432.45
2019-03-29T23:45:37.243Z,101424.94
2019-03-29T23:50:41.696Z,101416.66
2019-03-29T23:55:46.051Z,101421.49
